sensor_id;sensor_type;location;lat;lon;timestamp;P1;durP1;ratioP1;P2;durP2;ratioP2
43345;SDS011;28937;51.160;4.146;2022-08-21T00:00:34;8.15;;;2.25;;
43345;SDS011;28937;51.160;4.146;2022-08-21T00:03:03;16.17;;;6.60;;
43345;SDS011;28937;51.160;4.146;2022-08-21T00:05:31;6.00;;;2.75;;
43345;SDS011;28937;51.160;4.146;2022-08-21T00:08:00;7.15;;;1.85;;
43345;SDS011;28937;51.160;4.146;2022-08-21T00:10:27;7.57;;;2.20;;
43345;SDS011;28937;51.160;4.146;2022-08-21T00:12:53;8.82;;;2.30;;
43345;SDS011;28937;51.160;4.146;2022-08-21T00:15:21;8.43;;;2.20;;
43345;SDS011;28937;51.160;4.146;2022-08-21T00:17:50;5.78;;;1.85;;
43345;SDS011;28937;51.160;4.146;2022-08-21T00:20:16;5.55;;;1.92;;
43345;SDS011;28937;51.160;4.146;2022-08-21T00:22:42;6.45;;;2.13;;
43345;SDS011;28937;51.160;4.146;2022-08-21T00:25:08;12.57;;;3.15;;
43345;SDS011;28937;51.160;4.146;2022-08-21T00:27:35;6.40;;;2.80;;
43345;SDS011;28937;51.160;4.146;2022-08-21T00:30:00;9.25;;;2.55;;
43345;SDS011;28937;51.160;4.146;2022-08-21T00:32:27;7.80;;;1.90;;
43345;SDS011;28937;51.160;4.146;2022-08-21T00:34:53;10.02;;;2.47;;
43345;SDS011;28937;51.160;4.146;2022-08-21T00:37:19;6.82;;;2.05;;
43345;SDS011;28937;51.160;4.146;2022-08-21T00:39:45;7.53;;;2.20;;
43345;SDS011;28937;51.160;4.146;2022-08-21T00:42:12;7.97;;;2.03;;
43345;SDS011;28937;51.160;4.146;2022-08-21T00:44:45;10.00;;;2.40;;
43345;SDS011;28937;51.160;4.146;2022-08-21T00:47:12;8.20;;;2.28;;
43345;SDS011;28937;51.160;4.146;2022-08-21T00:49:38;8.88;;;2.35;;
43345;SDS011;28937;51.160;4.146;2022-08-21T00:52:05;7.05;;;2.20;;
43345;SDS011;28937;51.160;4.146;2022-08-21T00:54:33;9.95;;;2.30;;
43345;SDS011;28937;51.160;4.146;2022-08-21T00:57:00;6.57;;;2.30;;
43345;SDS011;28937;51.160;4.146;2022-08-21T00:59:34;6.18;;;2.15;;
43345;SDS011;28937;51.160;4.146;2022-08-21T01:02:03;8.90;;;1.90;;
43345;SDS011;28937;51.160;4.146;2022-08-21T01:04:30;7.78;;;2.50;;
43345;SDS011;28937;51.160;4.146;2022-08-21T01:06:56;5.63;;;2.05;;
43345;SDS011;28937;51.160;4.146;2022-08-21T01:09:22;6.45;;;2.20;;
43345;SDS011;28937;51.160;4.146;2022-08-21T01:11:47;4.43;;;1.60;;
43345;SDS011;28937;51.160;4.146;2022-08-21T01:14:13;6.35;;;1.67;;
43345;SDS011;28937;51.160;4.146;2022-08-21T01:16:40;6.45;;;1.92;;
43345;SDS011;28937;51.160;4.146;2022-08-21T01:19:09;5.95;;;2.33;;
43345;SDS011;28937;51.160;4.146;2022-08-21T01:21:36;10.43;;;2.88;;
43345;SDS011;28937;51.160;4.146;2022-08-21T01:24:02;9.48;;;2.45;;
43345;SDS011;28937;51.160;4.146;2022-08-21T01:26:30;10.23;;;2.22;;
43345;SDS011;28937;51.160;4.146;2022-08-21T01:28:58;8.85;;;2.63;;
43345;SDS011;28937;51.160;4.146;2022-08-21T01:31:30;6.50;;;2.30;;
43345;SDS011;28937;51.160;4.146;2022-08-21T01:33:57;4.85;;;1.90;;
43345;SDS011;28937;51.160;4.146;2022-08-21T01:36:24;9.50;;;2.33;;
43345;SDS011;28937;51.160;4.146;2022-08-21T01:38:50;8.60;;;2.22;;
43345;SDS011;28937;51.160;4.146;2022-08-21T01:41:16;7.28;;;2.13;;
43345;SDS011;28937;51.160;4.146;2022-08-21T01:43:42;6.53;;;2.15;;
43345;SDS011;28937;51.160;4.146;2022-08-21T01:46:08;6.30;;;2.50;;
43345;SDS011;28937;51.160;4.146;2022-08-21T01:48:34;6.28;;;2.22;;
43345;SDS011;28937;51.160;4.146;2022-08-21T01:51:00;6.95;;;2.30;;
43345;SDS011;28937;51.160;4.146;2022-08-21T01:53:26;7.70;;;1.98;;
43345;SDS011;28937;51.160;4.146;2022-08-21T01:55:52;6.25;;;2.40;;
43345;SDS011;28937;51.160;4.146;2022-08-21T01:58:18;6.35;;;2.20;;
43345;SDS011;28937;51.160;4.146;2022-08-21T02:00:43;5.25;;;1.75;;
43345;SDS011;28937;51.160;4.146;2022-08-21T02:03:09;8.02;;;2.28;;
43345;SDS011;28937;51.160;4.146;2022-08-21T02:05:35;6.07;;;1.75;;
43345;SDS011;28937;51.160;4.146;2022-08-21T02:08:00;8.40;;;2.30;;
43345;SDS011;28937;51.160;4.146;2022-08-21T02:10:29;8.68;;;2.90;;
43345;SDS011;28937;51.160;4.146;2022-08-21T02:12:56;8.77;;;2.30;;
43345;SDS011;28937;51.160;4.146;2022-08-21T02:15:24;7.72;;;2.20;;
43345;SDS011;28937;51.160;4.146;2022-08-21T02:17:55;10.98;;;2.33;;
43345;SDS011;28937;51.160;4.146;2022-08-21T02:20:30;5.35;;;2.20;;
43345;SDS011;28937;51.160;4.146;2022-08-21T02:22:57;7.53;;;2.08;;
43345;SDS011;28937;51.160;4.146;2022-08-21T02:25:23;8.43;;;2.20;;
43345;SDS011;28937;51.160;4.146;2022-08-21T02:27:50;4.60;;;1.95;;
43345;SDS011;28937;51.160;4.146;2022-08-21T02:30:22;9.63;;;2.22;;
43345;SDS011;28937;51.160;4.146;2022-08-21T02:32:49;6.18;;;1.75;;
43345;SDS011;28937;51.160;4.146;2022-08-21T02:35:15;9.52;;;2.33;;
43345;SDS011;28937;51.160;4.146;2022-08-21T02:40:18;8.60;;;2.00;;
43345;SDS011;28937;51.160;4.146;2022-08-21T02:42:45;7.75;;;1.90;;
43345;SDS011;28937;51.160;4.146;2022-08-21T02:45:11;7.38;;;2.00;;
43345;SDS011;28937;51.160;4.146;2022-08-21T02:47:37;6.60;;;1.85;;
43345;SDS011;28937;51.160;4.146;2022-08-21T02:50:04;7.10;;;1.88;;
43345;SDS011;28937;51.160;4.146;2022-08-21T02:52:30;7.22;;;1.65;;
43345;SDS011;28937;51.160;4.146;2022-08-21T02:54:56;6.95;;;1.83;;
43345;SDS011;28937;51.160;4.146;2022-08-21T02:57:21;6.13;;;1.70;;
43345;SDS011;28937;51.160;4.146;2022-08-21T02:59:47;7.13;;;1.73;;
43345;SDS011;28937;51.160;4.146;2022-08-21T03:02:12;5.75;;;1.90;;
43345;SDS011;28937;51.160;4.146;2022-08-21T03:04:38;4.85;;;1.40;;
43345;SDS011;28937;51.160;4.146;2022-08-21T03:07:04;8.02;;;1.90;;
43345;SDS011;28937;51.160;4.146;2022-08-21T03:09:29;6.22;;;1.90;;
43345;SDS011;28937;51.160;4.146;2022-08-21T03:11:55;4.82;;;1.50;;
43345;SDS011;28937;51.160;4.146;2022-08-21T03:14:20;6.93;;;2.40;;
43345;SDS011;28937;51.160;4.146;2022-08-21T03:16:46;8.60;;;1.73;;
43345;SDS011;28937;51.160;4.146;2022-08-21T03:19:11;9.38;;;2.22;;
43345;SDS011;28937;51.160;4.146;2022-08-21T03:21:37;6.43;;;1.83;;
43345;SDS011;28937;51.160;4.146;2022-08-21T03:24:03;8.70;;;1.48;;
43345;SDS011;28937;51.160;4.146;2022-08-21T03:26:29;6.55;;;1.60;;
43345;SDS011;28937;51.160;4.146;2022-08-21T03:28:55;6.70;;;2.22;;
43345;SDS011;28937;51.160;4.146;2022-08-21T03:31:22;4.57;;;1.52;;
43345;SDS011;28937;51.160;4.146;2022-08-21T03:33:48;6.68;;;1.75;;
43345;SDS011;28937;51.160;4.146;2022-08-21T03:36:14;6.25;;;1.65;;
43345;SDS011;28937;51.160;4.146;2022-08-21T03:38:40;5.75;;;1.65;;
43345;SDS011;28937;51.160;4.146;2022-08-21T03:41:06;7.03;;;1.67;;
43345;SDS011;28937;51.160;4.146;2022-08-21T03:43:32;5.60;;;1.65;;
43345;SDS011;28937;51.160;4.146;2022-08-21T03:45:59;7.03;;;1.75;;
43345;SDS011;28937;51.160;4.146;2022-08-21T03:48:26;3.67;;;1.40;;
43345;SDS011;28937;51.160;4.146;2022-08-21T03:50:51;9.60;;;2.03;;
43345;SDS011;28937;51.160;4.146;2022-08-21T03:53:17;7.32;;;2.05;;
43345;SDS011;28937;51.160;4.146;2022-08-21T03:55:44;11.48;;;1.77;;
43345;SDS011;28937;51.160;4.146;2022-08-21T03:58:11;4.47;;;1.60;;
43345;SDS011;28937;51.160;4.146;2022-08-21T04:00:36;8.57;;;1.92;;
43345;SDS011;28937;51.160;4.146;2022-08-21T04:03:02;7.63;;;1.88;;
43345;SDS011;28937;51.160;4.146;2022-08-21T04:05:28;7.10;;;1.73;;
43345;SDS011;28937;51.160;4.146;2022-08-21T04:07:58;6.55;;;1.63;;
43345;SDS011;28937;51.160;4.146;2022-08-21T04:10:25;5.80;;;1.77;;
43345;SDS011;28937;51.160;4.146;2022-08-21T04:12:53;8.40;;;1.60;;
43345;SDS011;28937;51.160;4.146;2022-08-21T04:15:19;7.88;;;1.73;;
43345;SDS011;28937;51.160;4.146;2022-08-21T04:17:45;5.55;;;1.73;;
43345;SDS011;28937;51.160;4.146;2022-08-21T04:20:11;5.28;;;2.00;;
43345;SDS011;28937;51.160;4.146;2022-08-21T04:22:37;5.72;;;1.63;;
43345;SDS011;28937;51.160;4.146;2022-08-21T04:25:03;6.55;;;1.73;;
43345;SDS011;28937;51.160;4.146;2022-08-21T04:27:30;7.13;;;1.90;;
43345;SDS011;28937;51.160;4.146;2022-08-21T04:29:55;9.15;;;1.58;;
43345;SDS011;28937;51.160;4.146;2022-08-21T04:32:22;6.70;;;1.50;;
43345;SDS011;28937;51.160;4.146;2022-08-21T04:34:57;7.28;;;1.63;;
43345;SDS011;28937;51.160;4.146;2022-08-21T04:37:23;7.00;;;1.98;;
43345;SDS011;28937;51.160;4.146;2022-08-21T04:39:49;4.03;;;1.67;;
43345;SDS011;28937;51.160;4.146;2022-08-21T04:42:15;9.10;;;1.50;;
43345;SDS011;28937;51.160;4.146;2022-08-21T04:44:40;6.40;;;1.70;;
43345;SDS011;28937;51.160;4.146;2022-08-21T04:47:06;4.50;;;1.27;;
43345;SDS011;28937;51.160;4.146;2022-08-21T04:49:32;11.65;;;1.95;;
43345;SDS011;28937;51.160;4.146;2022-08-21T04:51:58;9.68;;;1.63;;
43345;SDS011;28937;51.160;4.146;2022-08-21T04:54:24;6.88;;;1.58;;
43345;SDS011;28937;51.160;4.146;2022-08-21T04:56:54;6.30;;;1.73;;
43345;SDS011;28937;51.160;4.146;2022-08-21T04:59:28;8.38;;;1.95;;
43345;SDS011;28937;51.160;4.146;2022-08-21T05:01:59;7.50;;;2.20;;
43345;SDS011;28937;51.160;4.146;2022-08-21T05:04:27;7.95;;;2.08;;
43345;SDS011;28937;51.160;4.146;2022-08-21T05:06:56;7.40;;;1.85;;
43345;SDS011;28937;51.160;4.146;2022-08-21T05:09:25;5.95;;;1.95;;
43345;SDS011;28937;51.160;4.146;2022-08-21T05:11:51;4.57;;;1.95;;
43345;SDS011;28937;51.160;4.146;2022-08-21T05:14:17;5.35;;;1.60;;
43345;SDS011;28937;51.160;4.146;2022-08-21T05:16:44;9.13;;;1.88;;
43345;SDS011;28937;51.160;4.146;2022-08-21T05:19:10;6.45;;;1.98;;
43345;SDS011;28937;51.160;4.146;2022-08-21T05:21:38;6.05;;;1.73;;
43345;SDS011;28937;51.160;4.146;2022-08-21T05:24:05;7.35;;;1.85;;
43345;SDS011;28937;51.160;4.146;2022-08-21T05:26:31;7.55;;;2.00;;
43345;SDS011;28937;51.160;4.146;2022-08-21T05:28:57;6.45;;;2.17;;
43345;SDS011;28937;51.160;4.146;2022-08-21T05:31:23;7.10;;;1.90;;
43345;SDS011;28937;51.160;4.146;2022-08-21T05:33:48;6.97;;;2.00;;
43345;SDS011;28937;51.160;4.146;2022-08-21T05:36:14;8.77;;;2.05;;
43345;SDS011;28937;51.160;4.146;2022-08-21T05:38:39;6.05;;;2.17;;
43345;SDS011;28937;51.160;4.146;2022-08-21T05:41:05;10.27;;;2.10;;
43345;SDS011;28937;51.160;4.146;2022-08-21T05:43:32;8.77;;;2.53;;
43345;SDS011;28937;51.160;4.146;2022-08-21T05:46:01;8.75;;;2.38;;
43345;SDS011;28937;51.160;4.146;2022-08-21T05:48:30;6.90;;;1.88;;
43345;SDS011;28937;51.160;4.146;2022-08-21T05:50:55;8.70;;;2.28;;
43345;SDS011;28937;51.160;4.146;2022-08-21T05:53:22;6.78;;;2.10;;
43345;SDS011;28937;51.160;4.146;2022-08-21T05:55:49;8.00;;;1.85;;
43345;SDS011;28937;51.160;4.146;2022-08-21T05:58:17;8.32;;;1.77;;
43345;SDS011;28937;51.160;4.146;2022-08-21T06:00:45;7.70;;;1.85;;
43345;SDS011;28937;51.160;4.146;2022-08-21T06:03:16;6.63;;;1.83;;
43345;SDS011;28937;51.160;4.146;2022-08-21T06:05:44;8.90;;;2.53;;
43345;SDS011;28937;51.160;4.146;2022-08-21T06:08:10;9.32;;;1.75;;
43345;SDS011;28937;51.160;4.146;2022-08-21T06:10:36;6.93;;;1.40;;
43345;SDS011;28937;51.160;4.146;2022-08-21T06:13:02;6.45;;;1.65;;
43345;SDS011;28937;51.160;4.146;2022-08-21T06:15:28;4.95;;;1.58;;
43345;SDS011;28937;51.160;4.146;2022-08-21T06:17:54;5.28;;;1.35;;
43345;SDS011;28937;51.160;4.146;2022-08-21T06:20:20;5.50;;;1.40;;
43345;SDS011;28937;51.160;4.146;2022-08-21T06:22:46;6.85;;;1.60;;
43345;SDS011;28937;51.160;4.146;2022-08-21T06:25:12;5.60;;;1.60;;
43345;SDS011;28937;51.160;4.146;2022-08-21T06:27:37;7.43;;;1.80;;
43345;SDS011;28937;51.160;4.146;2022-08-21T06:30:04;6.90;;;1.30;;
43345;SDS011;28937;51.160;4.146;2022-08-21T06:32:30;4.80;;;1.30;;
43345;SDS011;28937;51.160;4.146;2022-08-21T06:34:56;7.50;;;2.67;;
43345;SDS011;28937;51.160;4.146;2022-08-21T06:37:22;7.03;;;1.70;;
43345;SDS011;28937;51.160;4.146;2022-08-21T06:39:47;6.70;;;1.33;;
43345;SDS011;28937;51.160;4.146;2022-08-21T06:42:14;5.03;;;1.48;;
43345;SDS011;28937;51.160;4.146;2022-08-21T06:44:41;7.85;;;1.80;;
43345;SDS011;28937;51.160;4.146;2022-08-21T06:47:07;5.80;;;1.65;;
43345;SDS011;28937;51.160;4.146;2022-08-21T06:49:33;6.32;;;1.40;;
43345;SDS011;28937;51.160;4.146;2022-08-21T06:51:59;7.32;;;2.08;;
43345;SDS011;28937;51.160;4.146;2022-08-21T06:54:25;10.95;;;1.63;;
43345;SDS011;28937;51.160;4.146;2022-08-21T06:56:50;8.02;;;2.03;;
43345;SDS011;28937;51.160;4.146;2022-08-21T06:59:16;8.10;;;2.03;;
43345;SDS011;28937;51.160;4.146;2022-08-21T07:01:42;9.27;;;1.92;;
43345;SDS011;28937;51.160;4.146;2022-08-21T07:04:07;8.57;;;1.88;;
43345;SDS011;28937;51.160;4.146;2022-08-21T07:06:33;8.55;;;2.00;;
43345;SDS011;28937;51.160;4.146;2022-08-21T07:08:59;7.70;;;1.90;;
43345;SDS011;28937;51.160;4.146;2022-08-21T07:11:26;7.20;;;2.45;;
43345;SDS011;28937;51.160;4.146;2022-08-21T07:13:51;8.80;;;2.70;;
43345;SDS011;28937;51.160;4.146;2022-08-21T07:16:19;4.75;;;1.50;;
43345;SDS011;28937;51.160;4.146;2022-08-21T07:18:46;4.13;;;1.38;;
43345;SDS011;28937;51.160;4.146;2022-08-21T07:21:11;6.82;;;1.63;;
43345;SDS011;28937;51.160;4.146;2022-08-21T07:23:38;7.65;;;1.90;;
43345;SDS011;28937;51.160;4.146;2022-08-21T07:26:07;15.88;;;2.38;;
43345;SDS011;28937;51.160;4.146;2022-08-21T07:28:32;8.00;;;1.77;;
43345;SDS011;28937;51.160;4.146;2022-08-21T07:30:59;6.00;;;1.75;;
43345;SDS011;28937;51.160;4.146;2022-08-21T07:33:26;9.85;;;1.80;;
43345;SDS011;28937;51.160;4.146;2022-08-21T07:35:53;7.78;;;1.90;;
43345;SDS011;28937;51.160;4.146;2022-08-21T07:38:19;7.65;;;1.73;;
43345;SDS011;28937;51.160;4.146;2022-08-21T07:40:46;8.45;;;1.65;;
43345;SDS011;28937;51.160;4.146;2022-08-21T07:43:13;6.35;;;1.92;;
43345;SDS011;28937;51.160;4.146;2022-08-21T07:45:41;7.18;;;1.98;;
43345;SDS011;28937;51.160;4.146;2022-08-21T07:48:07;8.07;;;2.10;;
43345;SDS011;28937;51.160;4.146;2022-08-21T07:50:33;7.57;;;2.00;;
43345;SDS011;28937;51.160;4.146;2022-08-21T07:52:59;7.60;;;1.77;;
43345;SDS011;28937;51.160;4.146;2022-08-21T07:55:24;9.30;;;2.25;;
43345;SDS011;28937;51.160;4.146;2022-08-21T07:57:50;6.45;;;2.22;;
43345;SDS011;28937;51.160;4.146;2022-08-21T08:00:17;8.20;;;2.00;;
43345;SDS011;28937;51.160;4.146;2022-08-21T08:02:45;7.47;;;2.22;;
43345;SDS011;28937;51.160;4.146;2022-08-21T08:05:15;8.65;;;1.73;;
43345;SDS011;28937;51.160;4.146;2022-08-21T08:07:42;10.10;;;2.25;;
43345;SDS011;28937;51.160;4.146;2022-08-21T08:10:07;7.03;;;1.92;;
43345;SDS011;28937;51.160;4.146;2022-08-21T08:12:35;10.98;;;2.15;;
43345;SDS011;28937;51.160;4.146;2022-08-21T08:15:01;9.90;;;2.20;;
43345;SDS011;28937;51.160;4.146;2022-08-21T08:17:27;11.02;;;2.40;;
43345;SDS011;28937;51.160;4.146;2022-08-21T08:19:53;11.07;;;2.45;;
43345;SDS011;28937;51.160;4.146;2022-08-21T08:22:20;6.75;;;2.10;;
43345;SDS011;28937;51.160;4.146;2022-08-21T08:24:49;8.40;;;2.08;;
43345;SDS011;28937;51.160;4.146;2022-08-21T08:27:16;9.63;;;2.42;;
43345;SDS011;28937;51.160;4.146;2022-08-21T08:29:43;8.00;;;2.00;;
43345;SDS011;28937;51.160;4.146;2022-08-21T08:32:09;10.25;;;2.35;;
43345;SDS011;28937;51.160;4.146;2022-08-21T08:34:35;7.00;;;2.10;;
43345;SDS011;28937;51.160;4.146;2022-08-21T08:37:02;9.35;;;2.13;;
43345;SDS011;28937;51.160;4.146;2022-08-21T08:39:28;6.43;;;2.25;;
43345;SDS011;28937;51.160;4.146;2022-08-21T08:42:05;10.70;;;2.38;;
43345;SDS011;28937;51.160;4.146;2022-08-21T08:44:35;7.95;;;1.60;;
43345;SDS011;28937;51.160;4.146;2022-08-21T08:47:01;13.65;;;2.25;;
43345;SDS011;28937;51.160;4.146;2022-08-21T08:49:34;13.57;;;1.92;;
43345;SDS011;28937;51.160;4.146;2022-08-21T08:52:06;14.38;;;1.98;;
43345;SDS011;28937;51.160;4.146;2022-08-21T08:54:47;16.95;;;2.47;;
43345;SDS011;28937;51.160;4.146;2022-08-21T08:57:21;15.02;;;2.22;;
43345;SDS011;28937;51.160;4.146;2022-08-21T08:59:49;14.93;;;2.80;;
43345;SDS011;28937;51.160;4.146;2022-08-21T09:02:20;9.13;;;1.85;;
43345;SDS011;28937;51.160;4.146;2022-08-21T09:04:48;14.35;;;1.83;;
43345;SDS011;28937;51.160;4.146;2022-08-21T09:10:13;16.77;;;3.00;;
43345;SDS011;28937;51.160;4.146;2022-08-21T09:18:59;8.88;;;1.95;;
43345;SDS011;28937;51.160;4.146;2022-08-21T09:21:49;12.02;;;2.13;;
43345;SDS011;28937;51.160;4.146;2022-08-21T09:27:16;8.85;;;2.00;;
43345;SDS011;28937;51.160;4.146;2022-08-21T09:29:45;9.90;;;2.38;;
43345;SDS011;28937;51.160;4.146;2022-08-21T09:32:20;7.88;;;1.83;;
43345;SDS011;28937;51.160;4.146;2022-08-21T09:35:03;8.70;;;1.58;;
43345;SDS011;28937;51.160;4.146;2022-08-21T09:37:35;8.43;;;1.98;;
43345;SDS011;28937;51.160;4.146;2022-08-21T09:43:06;6.83;;;1.67;;
43345;SDS011;28937;51.160;4.146;2022-08-21T09:45:42;10.40;;;1.67;;
43345;SDS011;28937;51.160;4.146;2022-08-21T09:48:23;9.40;;;1.52;;
43345;SDS011;28937;51.160;4.146;2022-08-21T09:50:50;10.38;;;1.73;;
43345;SDS011;28937;51.160;4.146;2022-08-21T09:53:25;6.57;;;1.50;;
43345;SDS011;28937;51.160;4.146;2022-08-21T09:55:57;11.65;;;1.95;;
43345;SDS011;28937;51.160;4.146;2022-08-21T09:58:59;8.55;;;1.70;;
43345;SDS011;28937;51.160;4.146;2022-08-21T10:01:25;9.05;;;1.52;;
43345;SDS011;28937;51.160;4.146;2022-08-21T10:04:12;7.03;;;1.63;;
43345;SDS011;28937;51.160;4.146;2022-08-21T10:06:36;9.18;;;1.70;;
43345;SDS011;28937;51.160;4.146;2022-08-21T10:09:04;10.27;;;1.88;;
43345;SDS011;28937;51.160;4.146;2022-08-21T10:11:32;7.57;;;1.55;;
43345;SDS011;28937;51.160;4.146;2022-08-21T10:30:45;7.70;;;1.92;;
43345;SDS011;28937;51.160;4.146;2022-08-21T10:33:28;5.88;;;1.42;;
43345;SDS011;28937;51.160;4.146;2022-08-21T10:44:34;6.85;;;1.67;;
43345;SDS011;28937;51.160;4.146;2022-08-21T10:47:16;8.75;;;2.05;;
43345;SDS011;28937;51.160;4.146;2022-08-21T10:49:56;8.90;;;2.17;;
43345;SDS011;28937;51.160;4.146;2022-08-21T10:55:35;14.52;;;3.88;;
43345;SDS011;28937;51.160;4.146;2022-08-21T10:58:10;12.43;;;4.43;;
43345;SDS011;28937;51.160;4.146;2022-08-21T11:05:58;16.33;;;5.15;;
43345;SDS011;28937;51.160;4.146;2022-08-21T11:08:55;12.68;;;5.05;;
43345;SDS011;28937;51.160;4.146;2022-08-21T11:11:36;12.07;;;4.65;;
43345;SDS011;28937;51.160;4.146;2022-08-21T11:14:30;13.20;;;3.80;;
43345;SDS011;28937;51.160;4.146;2022-08-21T11:17:08;12.15;;;3.63;;
43345;SDS011;28937;51.160;4.146;2022-08-21T11:19:43;9.38;;;3.60;;
43345;SDS011;28937;51.160;4.146;2022-08-21T11:24:57;11.85;;;3.25;;
43345;SDS011;28937;51.160;4.146;2022-08-21T11:30:28;7.80;;;3.00;;
43345;SDS011;28937;51.160;4.146;2022-08-21T11:36:31;10.63;;;2.47;;
43345;SDS011;28937;51.160;4.146;2022-08-21T11:38:59;11.57;;;3.15;;
43345;SDS011;28937;51.160;4.146;2022-08-21T11:41:28;11.35;;;2.55;;
43345;SDS011;28937;51.160;4.146;2022-08-21T11:56:39;12.63;;;2.78;;
43345;SDS011;28937;51.160;4.146;2022-08-21T11:59:16;6.40;;;2.38;;
43345;SDS011;28937;51.160;4.146;2022-08-21T12:01:45;7.38;;;1.88;;
43345;SDS011;28937;51.160;4.146;2022-08-21T12:04:18;7.85;;;1.95;;
43345;SDS011;28937;51.160;4.146;2022-08-21T12:06:56;9.93;;;1.98;;
43345;SDS011;28937;51.160;4.146;2022-08-21T12:09:35;9.25;;;2.53;;
43345;SDS011;28937;51.160;4.146;2022-08-21T12:14:41;7.18;;;1.75;;
43345;SDS011;28937;51.160;4.146;2022-08-21T12:17:21;9.52;;;1.75;;
43345;SDS011;28937;51.160;4.146;2022-08-21T12:19:59;8.48;;;1.77;;
43345;SDS011;28937;51.160;4.146;2022-08-21T12:22:47;6.88;;;1.52;;
43345;SDS011;28937;51.160;4.146;2022-08-21T12:25:35;8.30;;;2.20;;
43345;SDS011;28937;51.160;4.146;2022-08-21T12:28:08;5.00;;;1.60;;
43345;SDS011;28937;51.160;4.146;2022-08-21T12:30:39;7.80;;;1.77;;
43345;SDS011;28937;51.160;4.146;2022-08-21T12:35:43;5.85;;;1.83;;
43345;SDS011;28937;51.160;4.146;2022-08-21T12:38:23;7.30;;;2.03;;
43345;SDS011;28937;51.160;4.146;2022-08-21T12:40:55;6.68;;;1.83;;
43345;SDS011;28937;51.160;4.146;2022-08-21T12:43:30;7.47;;;1.70;;
43345;SDS011;28937;51.160;4.146;2022-08-21T12:46:03;4.53;;;1.40;;
43345;SDS011;28937;51.160;4.146;2022-08-21T12:48:35;3.67;;;1.10;;
43345;SDS011;28937;51.160;4.146;2022-08-21T12:51:13;9.60;;;2.08;;
43345;SDS011;28937;51.160;4.146;2022-08-21T12:53:45;7.30;;;1.70;;
43345;SDS011;28937;51.160;4.146;2022-08-21T12:56:16;10.07;;;2.38;;
43345;SDS011;28937;51.160;4.146;2022-08-21T12:58:45;10.20;;;2.13;;
43345;SDS011;28937;51.160;4.146;2022-08-21T13:01:24;6.70;;;1.83;;
43345;SDS011;28937;51.160;4.146;2022-08-21T13:03:54;7.80;;;1.63;;
43345;SDS011;28937;51.160;4.146;2022-08-21T13:06:23;8.63;;;1.60;;
43345;SDS011;28937;51.160;4.146;2022-08-21T13:08:54;8.13;;;1.85;;
43345;SDS011;28937;51.160;4.146;2022-08-21T13:11:28;6.85;;;1.73;;
43345;SDS011;28937;51.160;4.146;2022-08-21T13:13:53;4.10;;;1.52;;
43345;SDS011;28937;51.160;4.146;2022-08-21T13:16:23;8.70;;;1.80;;
43345;SDS011;28937;51.160;4.146;2022-08-21T13:19:02;7.35;;;1.65;;
43345;SDS011;28937;51.160;4.146;2022-08-21T13:21:32;6.90;;;1.92;;
43345;SDS011;28937;51.160;4.146;2022-08-21T13:24:08;6.70;;;1.83;;
43345;SDS011;28937;51.160;4.146;2022-08-21T13:26:40;6.45;;;1.63;;
43345;SDS011;28937;51.160;4.146;2022-08-21T13:29:10;8.13;;;1.90;;
43345;SDS011;28937;51.160;4.146;2022-08-21T13:31:38;6.93;;;1.67;;
43345;SDS011;28937;51.160;4.146;2022-08-21T13:34:07;6.03;;;1.83;;
43345;SDS011;28937;51.160;4.146;2022-08-21T13:36:35;7.63;;;1.73;;
43345;SDS011;28937;51.160;4.146;2022-08-21T13:39:04;6.97;;;1.88;;
43345;SDS011;28937;51.160;4.146;2022-08-21T13:41:34;7.90;;;1.70;;
43345;SDS011;28937;51.160;4.146;2022-08-21T13:44:03;5.32;;;1.48;;
43345;SDS011;28937;51.160;4.146;2022-08-21T13:46:32;7.47;;;2.10;;
43345;SDS011;28937;51.160;4.146;2022-08-21T13:49:00;8.43;;;2.30;;
43345;SDS011;28937;51.160;4.146;2022-08-21T13:51:29;4.93;;;1.38;;
43345;SDS011;28937;51.160;4.146;2022-08-21T13:53:56;7.07;;;1.88;;
43345;SDS011;28937;51.160;4.146;2022-08-21T13:58:51;7.03;;;1.95;;
43345;SDS011;28937;51.160;4.146;2022-08-21T14:01:22;8.85;;;1.88;;
43345;SDS011;28937;51.160;4.146;2022-08-21T14:03:49;9.63;;;1.80;;
43345;SDS011;28937;51.160;4.146;2022-08-21T14:06:35;7.30;;;1.77;;
43345;SDS011;28937;51.160;4.146;2022-08-21T14:09:13;8.18;;;1.95;;
43345;SDS011;28937;51.160;4.146;2022-08-21T14:11:54;7.78;;;2.22;;
43345;SDS011;28937;51.160;4.146;2022-08-21T14:14:23;9.95;;;2.95;;
43345;SDS011;28937;51.160;4.146;2022-08-21T14:17:07;7.60;;;2.22;;
43345;SDS011;28937;51.160;4.146;2022-08-21T14:19:45;12.57;;;2.55;;
43345;SDS011;28937;51.160;4.146;2022-08-21T14:32:58;8.05;;;2.30;;
43345;SDS011;28937;51.160;4.146;2022-08-21T14:35:24;10.68;;;2.20;;
43345;SDS011;28937;51.160;4.146;2022-08-21T14:37:51;8.48;;;2.20;;
43345;SDS011;28937;51.160;4.146;2022-08-21T14:40:17;9.95;;;2.00;;
43345;SDS011;28937;51.160;4.146;2022-08-21T14:42:43;10.00;;;2.50;;
43345;SDS011;28937;51.160;4.146;2022-08-21T14:45:14;9.75;;;1.92;;
43345;SDS011;28937;51.160;4.146;2022-08-21T14:47:41;11.57;;;2.42;;
43345;SDS011;28937;51.160;4.146;2022-08-21T14:50:08;6.22;;;1.73;;
43345;SDS011;28937;51.160;4.146;2022-08-21T14:52:35;14.93;;;2.30;;
43345;SDS011;28937;51.160;4.146;2022-08-21T14:55:01;11.57;;;2.85;;
43345;SDS011;28937;51.160;4.146;2022-08-21T14:57:27;10.70;;;2.55;;
43345;SDS011;28937;51.160;4.146;2022-08-21T14:59:55;11.30;;;3.10;;
43345;SDS011;28937;51.160;4.146;2022-08-21T15:02:21;14.70;;;3.00;;
43345;SDS011;28937;51.160;4.146;2022-08-21T15:04:47;11.32;;;2.55;;
43345;SDS011;28937;51.160;4.146;2022-08-21T15:07:12;11.15;;;2.78;;
43345;SDS011;28937;51.160;4.146;2022-08-21T15:09:38;10.07;;;2.30;;
43345;SDS011;28937;51.160;4.146;2022-08-21T15:12:03;12.75;;;2.70;;
43345;SDS011;28937;51.160;4.146;2022-08-21T15:14:32;13.15;;;2.55;;
43345;SDS011;28937;51.160;4.146;2022-08-21T15:16:59;8.35;;;2.03;;
43345;SDS011;28937;51.160;4.146;2022-08-21T15:19:25;6.18;;;1.75;;
43345;SDS011;28937;51.160;4.146;2022-08-21T15:21:51;7.35;;;2.20;;
43345;SDS011;28937;51.160;4.146;2022-08-21T15:24:16;16.08;;;2.35;;
43345;SDS011;28937;51.160;4.146;2022-08-21T15:26:42;9.27;;;2.45;;
43345;SDS011;28937;51.160;4.146;2022-08-21T15:29:08;7.72;;;2.10;;
43345;SDS011;28937;51.160;4.146;2022-08-21T15:31:34;8.38;;;1.88;;
43345;SDS011;28937;51.160;4.146;2022-08-21T15:34:00;8.30;;;2.13;;
43345;SDS011;28937;51.160;4.146;2022-08-21T15:36:26;9.00;;;2.38;;
43345;SDS011;28937;51.160;4.146;2022-08-21T15:38:52;14.55;;;3.92;;
43345;SDS011;28937;51.160;4.146;2022-08-21T15:41:17;14.10;;;3.95;;
43345;SDS011;28937;51.160;4.146;2022-08-21T15:43:47;13.07;;;3.50;;
43345;SDS011;28937;51.160;4.146;2022-08-21T15:46:15;11.73;;;3.78;;
43345;SDS011;28937;51.160;4.146;2022-08-21T15:48:42;11.00;;;3.42;;
43345;SDS011;28937;51.160;4.146;2022-08-21T15:51:09;6.50;;;2.22;;
43345;SDS011;28937;51.160;4.146;2022-08-21T15:53:35;11.60;;;2.78;;
43345;SDS011;28937;51.160;4.146;2022-08-21T15:56:04;9.02;;;2.35;;
43345;SDS011;28937;51.160;4.146;2022-08-21T15:58:31;8.30;;;2.20;;
43345;SDS011;28937;51.160;4.146;2022-08-21T16:01:00;11.68;;;2.47;;
43345;SDS011;28937;51.160;4.146;2022-08-21T16:03:26;8.02;;;1.92;;
43345;SDS011;28937;51.160;4.146;2022-08-21T16:05:52;9.63;;;2.45;;
43345;SDS011;28937;51.160;4.146;2022-08-21T16:08:20;9.95;;;2.28;;
43345;SDS011;28937;51.160;4.146;2022-08-21T16:10:46;7.53;;;2.17;;
43345;SDS011;28937;51.160;4.146;2022-08-21T16:13:20;5.97;;;1.85;;
43345;SDS011;28937;51.160;4.146;2022-08-21T16:15:50;10.43;;;2.53;;
43345;SDS011;28937;51.160;4.146;2022-08-21T16:18:16;7.53;;;2.20;;
43345;SDS011;28937;51.160;4.146;2022-08-21T16:20:42;9.15;;;2.22;;
43345;SDS011;28937;51.160;4.146;2022-08-21T16:23:08;8.60;;;2.20;;
43345;SDS011;28937;51.160;4.146;2022-08-21T16:25:35;9.25;;;1.83;;